Time;durP1;ratioP1;P1;durP2;ratioP2;P2;SDS_P1;SDS_P2;PMS_P1;PMS_P2;Temp;Humidity;BMP_temperature;BMP_pressure;BME280_temperature;BME280_humidity;BME280_pressure;Samples;Min_cycle;Max_cycle;Signal;HPM_P1;HPM_P2
2021/01/17 00:00:57;;;;;;;1.13;1.00;;;0.30;98.00;;;;;;5071717;28;20625;-66
2021/01/17 00:03:24;;;;;;;1.10;1.00;;;0.30;98.00;;;;;;5071686;28;20476;-65
2021/01/17 00:05:51;;;;;;;1.40;1.20;;;0.10;98.00;;;;;;5071612;28;20466;-65
2021/01/17 00:08:19;;;;;;;1.70;1.60;;;0.20;98.00;;;;;;5071771;28;20457;-67
2021/01/17 00:10:47;;;;;;;2.25;1.45;;;0.10;98.00;;;;;;5071476;28;21012;-66
2021/01/17 00:13:14;;;;;;;1.25;1.23;;;0.00;98.00;;;;;;5072982;28;20227;-67
2021/01/17 00:15:43;;;;;;;2.23;1.63;;;0.00;98.00;;;;;;5071292;28;20889;-66
2021/01/17 00:18:11;;;;;;;1.20;1.10;;;0.10;98.00;;;;;;5072866;28;20454;-65
2021/01/17 00:20:38;;;;;;;1.70;1.50;;;0.00;98.00;;;;;;5071415;28;20569;-65
2021/01/17 00:23:05;;;;;;;1.30;1.23;;;-0.10;98.00;;;;;;5071648;28;20453;-66
2021/01/17 00:25:35;;;;;;;1.23;1.20;;;-0.20;98.00;;;;;;5071321;28;20241;-65
2021/01/17 00:28:02;;;;;;;2.88;2.22;;;-0.40;98.00;;;;;;5071544;28;20480;-67
2021/01/17 00:30:30;;;;;;;1.20;1.20;;;-0.60;98.00;;;;;;5072199;28;20249;-65
2021/01/17 00:32:59;;;;;;;1.60;1.40;;;-0.70;98.00;;;;;;5071276;28;20233;-65
2021/01/17 00:35:27;;;;;;;1.30;1.23;;;-0.80;98.00;;;;;;5072448;28;20811;-66
2021/01/17 00:37:55;;;;;;;1.20;1.20;;;-0.90;98.00;;;;;;5071114;28;20498;-65
2021/01/17 00:40:23;;;;;;;1.65;1.65;;;-0.90;98.00;;;;;;5072381;28;20522;-65
2021/01/17 00:42:51;;;;;;;2.20;1.95;;;-0.80;98.00;;;;;;5070678;28;20195;-67
2021/01/17 00:45:19;;;;;;;1.75;1.50;;;-0.90;98.00;;;;;;5072341;28;20249;-66
2021/01/17 00:47:46;;;;;;;1.40;1.30;;;-1.00;98.00;;;;;;5070762;28;20228;-65
2021/01/17 00:50:14;;;;;;;1.63;1.30;;;-1.20;98.00;;;;;;5072355;28;20229;-65
2021/01/17 00:52:40;;;;;;;3.13;2.58;;;-1.30;98.00;;;;;;5069247;28;20245;-64
2021/01/17 00:55:09;;;;;;;1.40;1.30;;;-1.30;98.00;;;;;;5072143;28;20210;-66
2021/01/17 00:57:36;;;;;;;1.20;1.10;;;-1.30;98.00;;;;;;5069015;28;20202;-65
2021/01/17 01:00:05;;;;;;;3.15;2.65;;;-1.40;98.00;;;;;;5071900;28;20298;-66
2021/01/17 01:02:31;;;;;;;1.20;1.20;;;-1.40;98.00;;;;;;5070176;28;20242;-65
2021/01/17 01:04:58;;;;;;;1.10;1.10;;;-1.40;98.00;;;;;;5071772;28;20237;-64
2021/01/17 01:07:26;;;;;;;4.28;2.78;;;-1.40;98.00;;;;;;5069971;28;20301;-64
2021/01/17 01:09:53;;;;;;;6.30;1.90;;;-1.40;98.00;;;;;;5071972;28;20263;-65
2021/01/17 01:12:20;;;;;;;3.00;2.80;;;-1.40;98.00;;;;;;5070362;28;20194;-64
2021/01/17 01:14:46;;;;;;;2.25;1.65;;;-1.50;98.00;;;;;;5071973;28;20246;-66
2021/01/17 01:17:14;;;;;;;1.30;1.30;;;-1.50;98.00;;;;;;5070171;28;20596;-64
2021/01/17 01:19:40;;;;;;;2.00;1.20;;;-1.30;98.00;;;;;;5071265;28;20260;-66
2021/01/17 01:22:06;;;;;;;1.50;1.50;;;-1.30;98.00;;;;;;5070109;28;20687;-65
2021/01/17 01:24:33;;;;;;;2.50;1.88;;;-1.40;98.00;;;;;;5071438;28;20229;-65
2021/01/17 01:27:00;;;;;;;2.08;1.75;;;-1.40;98.00;;;;;;5069953;28;20471;-66
2021/01/17 01:29:26;;;;;;;1.30;1.25;;;-1.40;98.00;;;;;;5071317;28;20301;-64
2021/01/17 01:31:53;;;;;;;1.58;1.48;;;-1.40;98.00;;;;;;5069634;28;20199;-64
2021/01/17 01:34:20;;;;;;;2.55;2.35;;;-1.40;98.00;;;;;;5071162;28;20638;-65
2021/01/17 01:36:47;;;;;;;1.10;1.00;;;-1.30;98.00;;;;;;5069665;28;20222;-64
2021/01/17 01:39:13;;;;;;;3.55;1.60;;;-1.40;98.00;;;;;;5071156;28;20198;-65
2021/01/17 01:41:42;;;;;;;1.73;1.63;;;-1.40;98.00;;;;;;5069546;28;20206;-64
2021/01/17 01:44:10;;;;;;;1.20;1.20;;;-1.50;98.00;;;;;;5071119;28;20656;-66
2021/01/17 01:46:39;;;;;;;2.75;2.33;;;-1.50;98.00;;;;;;5068327;28;20217;-66
2021/01/17 01:49:06;;;;;;;1.30;1.30;;;-1.60;98.00;;;;;;5071123;28;20203;-65
2021/01/17 01:51:34;;;;;;;1.10;1.00;;;-1.60;98.00;;;;;;5069500;28;20607;-64
2021/01/17 01:54:02;;;;;;;2.58;2.17;;;-1.60;98.00;;;;;;5070985;28;20222;-66
2021/01/17 01:56:28;;;;;;;2.25;2.05;;;-1.60;98.00;;;;;;5069538;28;20207;-66
2021/01/17 01:58:56;;;;;;;2.22;1.92;;;-1.60;98.00;;;;;;5070918;28;20206;-65
2021/01/17 02:01:23;;;;;;;1.10;1.00;;;-1.60;98.00;;;;;;5068931;28;20245;-67
2021/01/17 02:03:51;;;;;;;1.58;1.38;;;-1.50;98.00;;;;;;5070967;28;20264;-65
2021/01/17 02:06:19;;;;;;;1.20;1.20;;;-1.40;98.00;;;;;;5069400;28;20213;-65
2021/01/17 02:09:21;;;;;;;1.40;1.38;;;-1.40;98.00;;;;;;5071014;28;20231;-65
2021/01/17 02:11:56;;;;;;;1.92;1.83;;;-1.30;98.00;;;;;;5069399;28;20196;-65
2021/01/17 02:14:43;;;;;;;3.85;2.03;;;-1.30;98.00;;;;;;5070750;28;20226;-64
2021/01/17 02:17:13;;;;;;;1.10;1.00;;;-1.40;98.00;;;;;;5067203;28;20619;-64
2021/01/17 02:20:02;;;;;;;1.17;1.05;;;-1.40;98.00;;;;;;5070736;28;20545;-64
2021/01/17 02:22:31;;;;;;;1.20;1.20;;;-1.40;98.00;;;;;;5067918;28;20203;-64
2021/01/17 02:25:03;;;;;;;1.85;1.20;;;-1.40;98.00;;;;;;5070582;28;20210;-65
2021/01/17 02:27:32;;;;;;;1.55;1.48;;;-1.50;98.00;;;;;;5069016;28;20206;-64
2021/01/17 02:30:01;;;;;;;1.75;1.20;;;-1.60;98.00;;;;;;5070579;28;20210;-64
2021/01/17 02:32:29;;;;;;;4.50;2.13;;;-1.60;98.00;;;;;;5068247;28;20199;-64
2021/01/17 02:34:56;;;;;;;1.25;1.23;;;-1.60;98.00;;;;;;5070674;28;20207;-67
2021/01/17 02:37:31;;;;;;;1.20;1.15;;;-1.50;98.00;;;;;;5069186;28;20206;-66
2021/01/17 02:40:04;;;;;;;2.33;2.13;;;-1.30;98.00;;;;;;5070544;28;20198;-65
2021/01/17 02:42:31;;;;;;;2.78;1.33;;;-1.30;98.00;;;;;;5069246;28;20203;-65
2021/01/17 02:44:59;;;;;;;1.60;1.42;;;-1.20;98.00;;;;;;5070648;28;20683;-65
2021/01/17 02:47:26;;;;;;;1.15;1.10;;;-1.30;98.00;;;;;;5068900;28;20199;-64
2021/01/17 02:49:53;;;;;;;1.10;1.00;;;-1.20;98.00;;;;;;5070595;28;20203;-66
2021/01/17 02:52:28;;;;;;;1.70;1.45;;;-1.00;98.00;;;;;;5068657;28;20238;-65
2021/01/17 02:54:55;;;;;;;2.75;1.65;;;-1.00;98.00;;;;;;5070375;28;20198;-65
2021/01/17 02:57:26;;;;;;;1.10;1.00;;;-0.90;98.00;;;;;;5068683;28;20742;-65
2021/01/17 02:59:56;;;;;;;2.58;1.73;;;-0.90;98.00;;;;;;5070131;28;20199;-64
2021/01/17 03:02:29;;;;;;;1.35;1.33;;;-0.80;98.00;;;;;;5068739;28;20207;-65
2021/01/17 03:04:59;;;;;;;1.30;1.10;;;-0.80;98.00;;;;;;5070238;28;20219;-67
2021/01/17 03:07:29;;;;;;;2.07;1.70;;;-0.80;98.00;;;;;;5068561;28;20207;-64
2021/01/17 03:09:56;;;;;;;1.20;1.10;;;-0.70;98.00;;;;;;5070161;28;20921;-64
2021/01/17 03:12:24;;;;;;;1.40;1.30;;;-0.70;98.00;;;;;;5068495;28;20208;-65
2021/01/17 03:14:52;;;;;;;1.20;1.10;;;-0.70;98.00;;;;;;5070289;28;20452;-64
2021/01/17 03:17:18;;;;;;;2.13;1.98;;;-0.70;98.00;;;;;;5068449;28;20458;-65
2021/01/17 03:19:45;;;;;;;2.80;2.60;;;-0.70;98.00;;;;;;5070090;28;20213;-65
2021/01/17 03:22:12;;;;;;;1.10;1.00;;;-0.70;98.00;;;;;;5068617;28;20233;-65
2021/01/17 03:24:38;;;;;;;1.27;1.23;;;-0.60;98.00;;;;;;5070146;28;20840;-66
2021/01/17 03:27:05;;;;;;;1.60;1.50;;;-0.70;98.00;;;;;;5068428;28;20466;-65
2021/01/17 03:29:32;;;;;;;1.33;1.27;;;-0.80;98.00;;;;;;5068987;28;20464;-64
2021/01/17 03:31:59;;;;;;;2.60;2.17;;;-0.80;98.00;;;;;;5068417;28;20803;-66
2021/01/17 03:34:25;;;;;;;1.40;1.33;;;-0.80;98.00;;;;;;5069860;28;21051;-65
2021/01/17 03:36:52;;;;;;;2.30;2.17;;;-0.80;98.00;;;;;;5068222;28;20211;-65
2021/01/17 03:39:18;;;;;;;3.47;2.65;;;-0.80;98.00;;;;;;5069769;28;20458;-65
2021/01/17 03:41:45;;;;;;;1.17;1.15;;;-0.80;98.00;;;;;;5068409;28;20256;-65
2021/01/17 03:44:11;;;;;;;1.30;1.27;;;-0.70;98.00;;;;;;5073366;28;20199;-65
2021/01/17 03:46:39;;;;;;;1.30;1.30;;;-0.80;98.00;;;;;;5070529;28;20256;-64
2021/01/17 03:49:05;;;;;;;1.20;1.17;;;-0.80;98.00;;;;;;5073457;28;20208;-65
2021/01/17 03:51:32;;;;;;;1.40;1.30;;;-0.70;98.00;;;;;;5071838;28;20213;-66
2021/01/17 03:53:58;;;;;;;2.90;1.92;;;-0.70;98.00;;;;;;5073107;28;20223;-65
2021/01/17 03:56:25;;;;;;;1.63;1.50;;;-0.70;98.00;;;;;;5071843;28;20249;-64
2021/01/17 03:58:52;;;;;;;1.40;1.35;;;-0.70;98.00;;;;;;5073190;28;20466;-65
2021/01/17 04:01:18;;;;;;;1.95;1.58;;;-0.70;98.00;;;;;;5070214;28;20273;-65
2021/01/17 04:03:46;;;;;;;1.25;1.23;;;-0.80;98.00;;;;;;5073324;28;20676;-65
2021/01/17 04:06:12;;;;;;;1.48;1.33;;;-0.90;98.00;;;;;;5071952;28;20665;-68
2021/01/17 04:08:39;;;;;;;1.10;1.03;;;-0.90;98.00;;;;;;5073380;28;20217;-65
2021/01/17 04:11:05;;;;;;;1.92;1.48;;;-0.80;98.00;;;;;;5071534;28;20465;-64
2021/01/17 04:13:32;;;;;;;1.50;1.50;;;-0.90;98.00;;;;;;5073028;28;20224;-65
2021/01/17 04:15:58;;;;;;;4.70;2.80;;;-0.80;98.00;;;;;;5070200;28;20669;-65
2021/01/17 04:18:25;;;;;;;2.33;1.77;;;-0.80;98.00;;;;;;5072996;28;20464;-65
2021/01/17 04:20:53;;;;;;;1.80;1.30;;;-0.70;98.00;;;;;;5072622;28;20236;-64
2021/01/17 04:23:20;;;;;;;1.30;1.20;;;-0.90;98.00;;;;;;5072832;28;20314;-65
2021/01/17 04:25:46;;;;;;;1.20;1.20;;;-1.00;98.00;;;;;;5071567;28;20206;-65
2021/01/17 04:28:13;;;;;;;1.70;1.60;;;-1.00;98.00;;;;;;5071151;28;20235;-65
2021/01/17 04:30:39;;;;;;;1.67;1.58;;;-1.00;98.00;;;;;;5072628;28;20203;-66
2021/01/17 04:33:06;;;;;;;1.52;1.42;;;-0.90;98.00;;;;;;5069741;28;20255;-65
2021/01/17 04:35:33;;;;;;;1.63;1.58;;;-0.70;98.00;;;;;;5072648;28;20620;-65
2021/01/17 04:38:01;;;;;;;1.50;1.45;;;-0.80;98.00;;;;;;5070985;28;20237;-64
2021/01/17 04:40:29;;;;;;;3.33;2.00;;;-0.70;98.00;;;;;;5086782;28;20207;-65
2021/01/17 04:43:06;;;;;;;1.17;1.00;;;-0.70;98.00;;;;;;5070770;28;20272;-65
2021/01/17 04:45:33;;;;;;;1.10;1.05;;;-0.70;98.00;;;;;;5071087;28;20208;-65
2021/01/17 04:48:02;;;;;;;1.30;1.25;;;-0.60;98.00;;;;;;5070698;28;20200;-65
2021/01/17 04:50:31;;;;;;;1.47;1.43;;;-0.60;98.00;;;;;;5072560;28;20795;-65
2021/01/17 04:53:09;;;;;;;2.00;1.48;;;-0.50;98.00;;;;;;5070624;28;20518;-65
2021/01/17 04:55:38;;;;;;;2.58;1.52;;;-0.60;98.00;;;;;;5071560;28;20210;-67
2021/01/17 04:58:16;;;;;;;1.35;1.27;;;-0.70;98.00;;;;;;5070340;28;20665;-65
2021/01/17 05:00:47;;;;;;;1.10;0.90;;;-0.70;98.00;;;;;;5071317;28;20253;-65
2021/01/17 05:03:28;;;;;;;1.38;1.25;;;-0.70;98.00;;;;;;5070260;28;20203;-65
2021/01/17 05:06:07;;;;;;;2.13;1.80;;;-0.90;98.00;;;;;;5072129;28;20211;-67
2021/01/17 05:08:34;;;;;;;1.10;1.00;;;-1.00;98.00;;;;;;5072012;28;20204;-65
2021/01/17 05:11:06;;;;;;;3.10;1.73;;;-1.00;98.00;;;;;;5070266;28;20550;-65
2021/01/17 05:13:37;;;;;;;1.50;1.40;;;-1.00;98.00;;;;;;5071831;28;20480;-66
2021/01/17 05:16:06;;;;;;;7.97;3.13;;;-1.10;98.00;;;;;;5070169;28;20213;-65
2021/01/17 05:18:33;;;;;;;1.20;1.08;;;-1.10;98.00;;;;;;5071789;28;20290;-65
2021/01/17 05:21:01;;;;;;;1.23;1.20;;;-1.20;98.00;;;;;;5070815;28;20815;-65
2021/01/17 05:23:33;;;;;;;1.33;1.15;;;-1.10;98.00;;;;;;5071718;28;20199;-65
2021/01/17 05:26:03;;;;;;;1.10;1.00;;;-1.10;98.00;;;;;;5070823;28;20678;-64
2021/01/17 05:28:31;;;;;;;1.10;1.00;;;-1.20;98.00;;;;;;5071625;28;20679;-65
2021/01/17 05:30:58;;;;;;;1.20;1.10;;;-1.30;98.00;;;;;;5071587;28;20214;-66
2021/01/17 05:33:30;;;;;;;1.20;1.10;;;-1.30;98.00;;;;;;5070882;28;20258;-65
2021/01/17 05:35:57;;;;;;;1.50;1.40;;;-1.20;98.00;;;;;;5071759;28;20324;-64
2021/01/17 05:38:24;;;;;;;1.20;1.20;;;-1.30;98.00;;;;;;5070311;28;20207;-64
2021/01/17 05:40:51;;;;;;;1.85;1.33;;;-1.30;98.00;;;;;;5071604;28;20568;-66
2021/01/17 05:43:19;;;;;;;2.95;2.75;;;-1.10;98.00;;;;;;5069546;28;20198;-65
2021/01/17 05:45:46;;;;;;;1.60;1.60;;;-1.10;98.00;;;;;;5071334;28;20203;-66
2021/01/17 05:48:12;;;;;;;1.30;1.20;;;-1.00;98.00;;;;;;5069767;28;20264;-67
2021/01/17 05:50:43;;;;;;;1.55;1.45;;;-0.80;98.00;;;;;;5071166;28;20206;-65
2021/01/17 05:53:10;;;;;;;1.20;1.10;;;-0.70;98.00;;;;;;5069468;28;20376;-65
2021/01/17 05:55:38;;;;;;;2.23;2.03;;;-0.70;98.00;;;;;;5071061;28;20208;-65
2021/01/17 05:58:24;;;;;;;1.30;1.20;;;-0.70;98.00;;;;;;5069298;28;20461;-65
2021/01/17 06:00:51;;;;;;;2.47;2.00;;;-0.60;98.00;;;;;;5070943;28;20202;-67
2021/01/17 06:03:20;;;;;;;1.92;1.52;;;-0.60;98.00;;;;;;5069202;28;20665;-66
2021/01/17 06:05:49;;;;;;;1.30;1.30;;;-0.50;98.00;;;;;;5070092;28;20204;-66
2021/01/17 06:08:20;;;;;;;1.10;0.90;;;-0.50;98.00;;;;;;5069274;28;20208;-64
2021/01/17 06:10:47;;;;;;;1.20;1.10;;;-0.60;98.00;;;;;;5069461;28;20665;-67
2021/01/17 06:13:25;;;;;;;1.10;1.00;;;-0.50;98.00;;;;;;5069050;28;20513;-65
2021/01/17 06:15:52;;;;;;;1.30;1.25;;;-0.60;98.00;;;;;;5070836;28;20461;-65
2021/01/17 06:18:20;;;;;;;3.27;1.70;;;-0.50;98.00;;;;;;5069007;28;20696;-66
2021/01/17 06:20:47;;;;;;;2.00;1.42;;;-0.60;98.00;;;;;;5070597;28;20471;-64
2021/01/17 06:23:20;;;;;;;1.20;1.10;;;-0.60;98.00;;;;;;5069008;28;20203;-65
2021/01/17 06:25:47;;;;;;;1.30;1.20;;;-0.50;98.00;;;;;;5070739;28;20963;-67
2021/01/17 06:28:15;;;;;;;2.35;2.20;;;-0.60;98.00;;;;;;5068750;28;20199;-65
2021/01/17 06:30:42;;;;;;;1.20;1.20;;;-0.70;98.00;;;;;;5070613;28;20230;-65
2021/01/17 06:33:20;;;;;;;1.63;1.23;;;-0.80;98.00;;;;;;5067871;28;20484;-66
2021/01/17 06:35:47;;;;;;;2.10;1.40;;;-0.70;98.00;;;;;;5070545;28;20210;-66
2021/01/17 06:38:17;;;;;;;1.87;1.77;;;-0.60;98.00;;;;;;5069006;28;20218;-66
2021/01/17 06:40:45;;;;;;;1.20;1.00;;;-0.60;98.00;;;;;;5069265;28;20457;-66
2021/01/17 06:43:13;;;;;;;2.53;1.57;;;-0.70;98.00;;;;;;5069004;28;20453;-66
2021/01/17 06:45:40;;;;;;;1.70;1.53;;;-0.70;98.00;;;;;;5070474;28;20464;-66
2021/01/17 06:48:08;;;;;;;1.60;1.58;;;-0.60;98.00;;;;;;5068893;28;20457;-64
2021/01/17 06:50:35;;;;;;;1.63;1.50;;;-0.50;98.00;;;;;;5069192;28;20204;-65
2021/01/17 06:53:02;;;;;;;1.70;1.20;;;-0.50;98.00;;;;;;5068699;28;20591;-65
2021/01/17 06:55:28;;;;;;;1.10;0.90;;;-0.40;98.00;;;;;;5070436;28;20480;-65
2021/01/17 06:57:58;;;;;;;1.10;1.00;;;-0.40;98.00;;;;;;5068803;28;20820;-65
2021/01/17 07:00:25;;;;;;;4.03;2.57;;;-0.30;98.00;;;;;;5070082;28;20473;-64
2021/01/17 07:02:53;;;;;;;2.70;1.33;;;-0.40;98.00;;;;;;5067592;28;20458;-65
2021/01/17 07:05:41;;;;;;;1.43;1.40;;;-0.40;98.00;;;;;;5070159;28;20941;-66
2021/01/17 07:08:36;;;;;;;3.43;1.70;;;-0.50;98.00;;;;;;5068579;28;20457;-65
2021/01/17 07:11:21;;;;;;;1.40;1.40;;;-0.50;98.00;;;;;;5070305;28;20464;-67
2021/01/17 07:13:50;;;;;;;1.40;1.10;;;-0.60;98.00;;;;;;5070379;28;20481;-65
2021/01/17 07:16:32;;;;;;;3.00;1.73;;;-0.60;98.00;;;;;;5068620;28;20330;-68
2021/01/17 07:19:07;;;;;;;1.13;0.90;;;-0.50;98.00;;;;;;5073902;28;20454;-66
2021/01/17 07:21:38;;;;;;;1.13;1.00;;;-0.50;98.00;;;;;;5072681;28;20256;-65
2021/01/17 07:24:07;;;;;;;1.30;1.23;;;-0.50;98.00;;;;;;5073809;28;20204;-65
2021/01/17 07:26:48;;;;;;;1.20;1.07;;;-0.50;98.00;;;;;;5072155;28;20518;-65
2021/01/17 07:29:19;;;;;;;1.30;1.10;;;-0.50;98.00;;;;;;5073641;28;20457;-65
2021/01/17 07:31:49;;;;;;;1.20;1.10;;;-0.40;98.00;;;;;;5072241;28;20206;-65
2021/01/17 07:34:16;;;;;;;1.20;1.10;;;-0.30;98.00;;;;;;5073438;28;20520;-65
2021/01/17 07:36:49;;;;;;;1.10;1.00;;;-0.30;98.00;;;;;;5072314;28;20581;-65
2021/01/17 07:39:21;;;;;;;1.20;1.20;;;-0.30;98.00;;;;;;5073476;28;20197;-65
2021/01/17 07:41:49;;;;;;;1.20;1.20;;;-0.40;98.00;;;;;;5072381;28;20629;-65
2021/01/17 07:44:19;;;;;;;1.88;1.35;;;-0.40;98.00;;;;;;5073463;28;20218;-65
2021/01/17 07:46:49;;;;;;;1.10;1.00;;;-0.30;98.00;;;;;;5071982;28;20200;-64
2021/01/17 07:49:16;;;;;;;1.20;1.13;;;-0.20;98.00;;;;;;5073287;28;20457;-64
2021/01/17 07:51:45;;;;;;;2.70;1.97;;;-0.30;98.00;;;;;;5071874;28;20664;-65
2021/01/17 07:54:19;;;;;;;1.52;1.25;;;-0.40;98.00;;;;;;5073177;28;20485;-65
2021/01/17 07:56:47;;;;;;;1.20;1.10;;;-0.40;98.00;;;;;;5071666;28;20567;-66
2021/01/17 07:59:23;;;;;;;2.30;1.48;;;-0.30;98.00;;;;;;5072973;28;20603;-64
2021/01/17 08:01:49;;;;;;;3.45;3.03;;;-0.40;98.00;;;;;;5071717;28;20332;-65
2021/01/17 08:04:23;;;;;;;1.87;1.83;;;-0.30;98.00;;;;;;5073075;28;20212;-64
2021/01/17 08:06:50;;;;;;;4.35;2.88;;;-0.30;98.00;;;;;;5071650;28;20461;-66
2021/01/17 08:09:19;;;;;;;1.20;1.10;;;-0.30;98.00;;;;;;5073042;28;20629;-65
2021/01/17 08:11:49;;;;;;;2.70;1.70;;;-0.30;98.00;;;;;;5070771;28;20464;-66
2021/01/17 08:14:23;;;;;;;1.43;1.33;;;-0.30;98.00;;;;;;5072837;28;20490;-66
2021/01/17 08:17:10;;;;;;;1.83;1.73;;;-0.40;98.00;;;;;;5070777;28;20487;-66
2021/01/17 08:19:41;;;;;;;1.50;1.33;;;-0.40;98.00;;;;;;5072874;28;20295;-67
2021/01/17 08:22:44;;;;;;;1.30;1.10;;;-0.40;98.00;;;;;;5070677;28;20257;-65
2021/01/17 08:25:37;;;;;;;2.20;1.83;;;-0.30;98.00;;;;;;5072628;28;20461;-67
2021/01/17 08:28:29;;;;;;;1.83;1.67;;;-0.10;98.00;;;;;;5070150;28;20467;-66
2021/01/17 08:30:56;;;;;;;1.10;1.00;;;-0.10;98.00;;;;;;5072369;28;20823;-66
2021/01/17 08:33:27;;;;;;;1.30;1.30;;;-0.10;98.00;;;;;;5070316;28;20552;-66
2021/01/17 08:35:54;;;;;;;1.40;1.40;;;-0.10;98.00;;;;;;5072629;28;20492;-67
2021/01/17 08:38:22;;;;;;;1.30;1.30;;;-0.10;98.00;;;;;;5070606;28;20764;-66
2021/01/17 08:40:51;;;;;;;1.43;1.33;;;0.10;98.00;;;;;;5072801;28;20527;-67
2021/01/17 08:43:29;;;;;;;1.20;1.10;;;0.00;98.00;;;;;;5071350;28;20471;-65
2021/01/17 08:45:56;;;;;;;2.05;1.67;;;0.00;98.00;;;;;;5072424;28;20451;-66
2021/01/17 08:48:30;;;;;;;5.30;3.13;;;0.00;98.00;;;;;;5070334;28;20214;-67
2021/01/17 08:50:59;;;;;;;1.10;1.00;;;0.10;98.00;;;;;;5072084;28;20476;-66
2021/01/17 08:53:29;;;;;;;1.57;1.30;;;0.30;98.00;;;;;;5069896;28;20518;-66
2021/01/17 08:56:01;;;;;;;1.42;1.42;;;0.30;98.00;;;;;;5072165;28;20458;-67
2021/01/17 08:58:47;;;;;;;1.20;1.20;;;0.50;98.00;;;;;;5069903;28;20203;-66
2021/01/17 09:01:14;;;;;;;1.10;1.00;;;0.30;98.00;;;;;;5071945;28;20516;-66
2021/01/17 09:03:57;;;;;;;2.47;1.73;;;0.30;98.00;;;;;;5070721;28;20453;-66
2021/01/17 09:06:27;;;;;;;1.40;1.30;;;0.40;98.00;;;;;;5070013;28;20793;-67
2021/01/17 09:09:06;;;;;;;1.17;1.17;;;0.50;98.00;;;;;;5071938;28;20468;-65
2021/01/17 09:11:39;;;;;;;2.37;1.80;;;0.50;98.00;;;;;;5069950;28;20458;-68
2021/01/17 09:14:17;;;;;;;1.30;1.20;;;0.60;98.00;;;;;;5071463;28;20544;-67
2021/01/17 09:16:46;;;;;;;1.10;1.00;;;0.70;98.00;;;;;;5069578;28;20837;-66
2021/01/17 09:19:12;;;;;;;1.50;1.37;;;0.60;98.00;;;;;;5071628;28;20932;-66
2021/01/17 09:21:39;;;;;;;1.20;1.10;;;0.90;98.00;;;;;;5069942;28;20454;-66
2021/01/17 09:24:08;;;;;;;1.93;1.77;;;0.80;98.00;;;;;;5071474;28;20928;-65
2021/01/17 09:26:35;;;;;;;1.20;1.13;;;0.80;98.00;;;;;;5069242;28;20520;-66
2021/01/17 09:29:06;;;;;;;2.13;1.93;;;0.90;98.00;;;;;;5069018;28;20458;-67
2021/01/17 09:31:35;;;;;;;1.90;1.83;;;0.90;98.00;;;;;;5069130;28;20456;-66
2021/01/17 09:34:03;;;;;;;5.00;2.33;;;0.80;98.00;;;;;;5069717;28;20488;-66
2021/01/17 09:36:29;;;;;;;2.40;2.10;;;1.00;98.00;;;;;;5067985;28;20458;-66
2021/01/17 09:38:56;;;;;;;1.20;1.00;;;1.10;98.00;;;;;;5070820;28;20845;-66
2021/01/17 09:41:25;;;;;;;1.47;1.40;;;1.10;98.00;;;;;;5070062;28;20956;-65
2021/01/17 09:43:53;;;;;;;1.60;1.50;;;1.00;98.00;;;;;;5070656;28;20488;-65
2021/01/17 09:46:22;;;;;;;1.80;1.50;;;1.00;98.00;;;;;;5070678;28;20466;-65
2021/01/17 09:48:56;;;;;;;2.50;1.90;;;1.10;98.00;;;;;;5069187;28;20465;-67
2021/01/17 09:51:24;;;;;;;2.90;2.20;;;1.10;98.00;;;;;;5070470;28;20514;-66
2021/01/17 09:53:54;;;;;;;1.10;1.00;;;1.20;98.00;;;;;;5069731;28;20484;-66
2021/01/17 09:56:21;;;;;;;1.20;1.10;;;1.20;98.00;;;;;;5070645;28;20478;-65
2021/01/17 09:58:48;;;;;;;2.87;2.63;;;1.40;98.00;;;;;;5068308;28;20542;-65
2021/01/17 10:01:22;;;;;;;2.07;1.87;;;1.50;98.00;;;;;;5069300;28;20463;-67
2021/01/17 10:03:49;;;;;;;4.80;1.83;;;1.50;98.00;;;;;;5068694;28;20458;-69
2021/01/17 10:06:17;;;;;;;2.10;1.80;;;1.70;98.00;;;;;;5070634;28;20472;-66
2021/01/17 10:08:45;;;;;;;1.10;1.00;;;1.70;98.00;;;;;;5068645;28;20443;-66
2021/01/17 10:11:11;;;;;;;3.23;2.20;;;1.70;98.00;;;;;;5070502;28;20975;-68
2021/01/17 10:13:47;;;;;;;9.23;3.03;;;1.60;98.00;;;;;;5068593;28;20491;-68
2021/01/17 10:16:22;;;;;;;1.67;1.57;;;1.60;98.00;;;;;;5070340;28;20523;-66
2021/01/17 10:18:49;;;;;;;1.50;1.23;;;1.70;98.00;;;;;;5068614;28;20550;-66
2021/01/17 10:21:16;;;;;;;2.00;1.70;;;1.70;98.00;;;;;;5070101;28;20467;-66
2021/01/17 10:23:43;;;;;;;2.37;2.17;;;1.60;98.00;;;;;;5068721;28;20452;-66
2021/01/17 10:26:10;;;;;;;1.80;1.77;;;1.50;98.00;;;;;;5069020;28;20456;-65
2021/01/17 10:28:37;;;;;;;1.83;1.77;;;1.50;98.00;;;;;;5068443;28;20455;-65
2021/01/17 10:31:07;;;;;;;1.53;1.43;;;1.40;98.00;;;;;;5071006;28;20460;-65
2021/01/17 10:33:34;;;;;;;2.90;2.70;;;1.40;98.00;;;;;;5052203;28;20483;-65
2021/01/17 10:36:01;;;;;;;1.60;1.53;;;1.40;98.00;;;;;;5070786;28;20455;-66
2021/01/17 10:38:28;;;;;;;1.20;1.13;;;1.20;98.00;;;;;;5069634;28;21183;-66
2021/01/17 10:40:54;;;;;;;3.77;1.77;;;1.20;98.00;;;;;;5070403;28;20462;-66
2021/01/17 10:43:29;;;;;;;1.40;1.23;;;1.30;98.00;;;;;;5068388;28;20518;-68
2021/01/17 10:46:03;;;;;;;1.40;1.30;;;1.20;98.00;;;;;;5069079;28;20469;-68
2021/01/17 10:48:33;;;;;;;1.47;1.37;;;1.40;98.00;;;;;;5068524;28;20882;-65
2021/01/17 10:51:03;;;;;;;2.13;1.67;;;1.50;98.00;;;;;;5070026;28;20835;-67
2021/01/17 10:53:40;;;;;;;1.87;1.70;;;1.40;98.00;;;;;;5070797;28;20498;-68
2021/01/17 10:56:10;;;;;;;7.50;1.80;;;1.50;98.00;;;;;;5074155;28;20452;-67
2021/01/17 10:58:41;;;;;;;1.40;1.30;;;1.70;98.00;;;;;;5071875;28;20459;-67
2021/01/17 11:01:08;;;;;;;1.70;1.60;;;1.80;98.00;;;;;;5073926;28;20961;-67
2021/01/17 11:03:36;;;;;;;1.30;1.20;;;1.80;98.00;;;;;;5071718;28;20459;-66
2021/01/17 11:06:11;;;;;;;1.73;1.63;;;1.90;98.00;;;;;;5073920;28;20508;-66
2021/01/17 11:08:42;;;;;;;1.20;1.10;;;1.90;98.00;;;;;;5070692;28;20459;-67
2021/01/17 11:11:09;;;;;;;3.73;2.90;;;1.70;98.00;;;;;;5074197;28;20462;-68
2021/01/17 11:13:36;;;;;;;1.60;1.33;;;1.80;98.00;;;;;;5071989;28;20857;-67
2021/01/17 11:16:04;;;;;;;1.40;1.37;;;1.80;98.00;;;;;;5073797;28;20541;-66
2021/01/17 11:18:32;;;;;;;1.73;1.67;;;1.90;98.00;;;;;;5072135;28;20467;-66
2021/01/17 11:20:59;;;;;;;4.30;2.17;;;2.00;98.00;;;;;;5073815;28;20517;-68
2021/01/17 11:23:29;;;;;;;1.53;1.37;;;2.10;98.00;;;;;;5071581;28;20621;-66
2021/01/17 11:26:02;;;;;;;2.13;1.93;;;2.00;98.00;;;;;;5073578;28;20464;-67
2021/01/17 11:28:30;;;;;;;5.47;3.27;;;1.80;98.00;;;;;;5071816;28;20459;-68
2021/01/17 11:31:11;;;;;;;4.80;1.57;;;1.90;98.00;;;;;;5073617;28;20942;-67
2021/01/17 11:33:38;;;;;;;3.47;2.93;;;2.00;98.00;;;;;;5071477;28;21023;-67
2021/01/17 11:36:05;;;;;;;8.93;2.23;;;2.10;98.00;;;;;;5073558;28;20456;-67
2021/01/17 11:38:47;;;;;;;1.20;1.10;;;2.10;98.00;;;;;;5071912;28;20452;-67
2021/01/17 11:41:14;;;;;;;2.33;1.83;;;2.10;98.00;;;;;;5073671;28;20462;-68
2021/01/17 11:43:41;;;;;;;1.87;1.37;;;2.10;98.00;;;;;;5071597;28;20459;-67
2021/01/17 11:46:10;;;;;;;1.90;1.50;;;2.10;98.00;;;;;;5073168;28;20455;-68
2021/01/17 11:48:38;;;;;;;3.47;1.87;;;2.20;98.00;;;;;;5071471;28;20487;-67
2021/01/17 11:51:05;;;;;;;1.93;1.90;;;2.30;98.00;;;;;;5073150;28;20459;-68
2021/01/17 11:53:33;;;;;;;2.60;1.47;;;2.20;98.00;;;;;;5071045;28;20515;-67
2021/01/17 11:56:01;;;;;;;1.30;1.30;;;2.10;98.00;;;;;;5073096;28;20460;-67
2021/01/17 11:58:28;;;;;;;2.37;1.93;;;2.10;98.00;;;;;;5071105;28;20458;-67
2021/01/17 12:00:57;;;;;;;1.77;1.20;;;2.10;98.00;;;;;;5072902;28;20455;-69
2021/01/17 12:03:32;;;;;;;2.67;1.70;;;2.00;98.00;;;;;;5070769;28;20483;-67
2021/01/17 12:06:10;;;;;;;1.90;1.50;;;2.00;98.00;;;;;;5072841;28;20463;-68
2021/01/17 12:08:57;;;;;;;3.83;2.67;;;2.00;98.00;;;;;;5070962;28;20462;-67
2021/01/17 12:11:37;;;;;;;1.73;1.70;;;2.00;98.00;;;;;;5072469;28;20468;-68
2021/01/17 12:14:06;;;;;;;1.60;1.27;;;2.10;98.00;;;;;;5069731;28;20503;-68
2021/01/17 12:16:36;;;;;;;3.77;2.50;;;2.20;98.00;;;;;;5072519;28;20448;-67
2021/01/17 12:19:03;;;;;;;1.93;1.83;;;2.30;98.00;;;;;;5070703;28;20549;-67
2021/01/17 12:21:31;;;;;;;1.83;1.70;;;2.30;98.00;;;;;;5072509;28;20473;-66
2021/01/17 12:24:01;;;;;;;1.20;1.10;;;2.40;98.00;;;;;;5070418;28;20456;-67
2021/01/17 12:26:28;;;;;;;1.77;1.50;;;2.30;98.00;;;;;;5072410;28;20462;-67
2021/01/17 12:28:56;;;;;;;1.53;1.43;;;2.20;98.00;;;;;;5070651;28;20718;-67
2021/01/17 12:31:24;;;;;;;1.40;1.17;;;2.10;98.00;;;;;;5072193;28;20464;-67
2021/01/17 12:33:51;;;;;;;3.00;2.10;;;2.00;98.00;;;;;;5070233;28;20491;-68
2021/01/17 12:36:19;;;;;;;1.97;1.87;;;1.90;98.00;;;;;;5072366;28;20474;-69
2021/01/17 12:38:47;;;;;;;1.10;1.00;;;2.10;98.00;;;;;;5070313;28;20459;-68
2021/01/17 12:41:15;;;;;;;1.20;1.20;;;3.40;98.00;;;;;;5072112;28;20464;-68
2021/01/17 12:43:43;;;;;;;2.07;1.53;;;4.60;98.00;;;;;;5070326;28;20448;-68
2021/01/17 12:46:11;;;;;;;1.63;1.40;;;4.60;98.00;;;;;;5072048;28;20828;-67
2021/01/17 12:48:39;;;;;;;6.17;2.97;;;4.20;98.00;;;;;;5070497;28;20464;-67
2021/01/17 12:51:06;;;;;;;1.20;1.00;;;3.90;98.00;;;;;;5072392;28;20807;-67
2021/01/17 12:53:33;;;;;;;1.93;1.73;;;3.80;98.00;;;;;;5070291;28;20480;-68
2021/01/17 12:55:59;;;;;;;2.50;2.03;;;3.50;98.00;;;;;;5072177;28;20461;-70
2021/01/17 12:58:26;;;;;;;1.50;1.20;;;3.20;98.00;;;;;;5070068;28;20475;-68
2021/01/17 13:00:52;;;;;;;2.67;1.97;;;3.00;98.00;;;;;;5072216;28;20460;-67
2021/01/17 13:03:20;;;;;;;1.20;1.10;;;2.90;98.00;;;;;;5070369;28;20540;-67